PWSweather.com
Personal Weather Stations
Station Observations
KILMORRI1
Goose Lake, Morris, IL 60450

Goose LakeMorris, IL 60450

Lat: 41.34, Lon: -88.3

Elevation: 523

Station Type:

www.gooselakeweather.com

High Low Average
Temperature 33.5°F0.8°C 22.7°F-5.2°C 29.8°F-1.2°C
Dew Point 22.6°F-5.2°C 14.4°F-9.8°C 17.8°F-7.9°C
Winds 12.7 mph 20.4 kmh Calm Calm 5.0 mph WNW8.0 kmh WNW
Wind Gusts 19.6 mph31.5 kmh 1.2 mph1.9 kmh 7.0 mph11.3 kmh
Humidity 75% 47% 61%
Pressure 30.30 in1026.1 mb 30.17 in1021.7 mb -
Precipitation 0.00 in0.0 mm - -
Hour Temp Dew Point Humidity Winds Wind Gusts Pressure Precip Precip Rate Daily Precip Total
12:00 AM 34.1°F1.2°C 23.9°F-4.5°C 66% 6.9 mph NW11.1 kmh NW 11.5 mph18.5 kmh 30.18 in1022.0 mb - 0.00 in0.0 mm 0.00 in0.0 mm
12:10 AM 34.0°F1.1°C 23.9°F-4.5°C 66% 9.2 mph NW14.8 kmh NW 12.7 mph20.4 kmh 30.19 in1022.4 mb - 0.00 in0.0 mm 0.00 in0.0 mm
12:20 AM 33.8°F1.0°C 23.6°F-4.7°C 66% 6.9 mph WNW11.1 kmh WNW 6.9 mph11.1 kmh 30.19 in1022.4 mb - 0.00 in0.0 mm 0.00 in0.0 mm
12:30 AM 33.5°F0.8°C 23.4°F-4.8°C 66% 8.1 mph NW13.0 kmh NW 13.8 mph22.2 kmh 30.19 in1022.4 mb - 0.00 in0.0 mm 0.00 in0.0 mm
12:40 AM 33.4°F0.8°C 22.9°F-5.1°C 65% 12.7 mph NW20.4 kmh NW 16.1 mph25.9 kmh 30.19 in1022.4 mb - 0.00 in0.0 mm 0.00 in0.0 mm
12:50 AM 33.2°F0.7°C 23.0°F-5.0°C 66% 6.9 mph NW11.1 kmh NW 11.5 mph18.5 kmh 30.19 in1022.4 mb - 0.00 in0.0 mm 0.00 in0.0 mm
01:00 AM 33.0°F0.6°C 22.5°F-5.3°C 65% 10.4 mph NW16.7 kmh NW 15.0 mph24.1 kmh 30.19 in1022.4 mb - 0.00 in0.0 mm 0.00 in0.0 mm
01:10 AM 32.7°F0.4°C 22.6°F-5.2°C 66% 10.4 mph NW16.7 kmh NW 19.6 mph31.5 kmh 30.20 in1022.7 mb - 0.00 in0.0 mm 0.00 in0.0 mm
01:20 AM 32.5°F0.3°C 22.0°F-5.6°C 65% 8.1 mph NW13.0 kmh NW 11.5 mph18.5 kmh 30.20 in1022.7 mb - 0.00 in0.0 mm 0.00 in0.0 mm
01:30 AM 32.3°F0.2°C 21.8°F-5.7°C 65% 6.9 mph NW11.1 kmh NW 11.5 mph18.5 kmh 30.20 in1022.7 mb - 0.00 in0.0 mm 0.00 in0.0 mm
01:40 AM 31.9°F-0.1°C 21.1°F-6.1°C 64% 6.9 mph NW11.1 kmh NW 11.5 mph18.5 kmh 30.20 in1022.7 mb - 0.00 in0.0 mm 0.00 in0.0 mm
01:50 AM 31.7°F-0.2°C 20.6°F-6.3°C 63% 8.1 mph NW13.0 kmh NW 11.5 mph18.5 kmh 30.20 in1022.7 mb - 0.00 in0.0 mm 0.00 in0.0 mm
02:00 AM 31.5°F-0.3°C 20.0°F-6.7°C 62% 9.2 mph NW14.8 kmh NW 12.7 mph20.4 kmh 30.20 in1022.7 mb - 0.00 in0.0 mm 0.00 in0.0 mm
02:10 AM 31.2°F-0.4°C 20.1°F-6.6°C 63% 8.1 mph NW13.0 kmh NW 13.8 mph22.2 kmh 30.20 in1022.7 mb - 0.00 in0.0 mm 0.00 in0.0 mm
02:20 AM 31.1°F-0.5°C 20.0°F-6.7°C 63% 12.7 mph NW20.4 kmh NW 18.4 mph29.6 kmh 30.20 in1022.7 mb - 0.00 in0.0 mm 0.00 in0.0 mm
02:30 AM 30.9°F-0.6°C 19.0°F-7.2°C 61% 11.5 mph NW18.5 kmh NW 17.3 mph27.8 kmh 30.21 in1023.0 mb - 0.00 in0.0 mm 0.00 in0.0 mm
02:40 AM 30.7°F-0.7°C 18.4°F-7.6°C 60% 8.1 mph NW13.0 kmh NW 11.5 mph18.5 kmh 30.21 in1023.0 mb - 0.00 in0.0 mm 0.00 in0.0 mm
02:50 AM 30.3°F-0.9°C 18.8°F-7.3°C 62% 9.2 mph NW14.8 kmh NW 16.1 mph25.9 kmh 30.21 in1023.0 mb - 0.00 in0.0 mm 0.00 in0.0 mm
03:00 AM 30.1°F-1.1°C 18.6°F-7.4°C 62% 9.2 mph NW14.8 kmh NW 10.4 mph16.7 kmh 30.22 in1023.4 mb - 0.00 in0.0 mm 0.00 in0.0 mm
03:10 AM 29.9°F-1.2°C 18.8°F-7.3°C 63% 10.4 mph NW16.7 kmh NW 15.0 mph24.1 kmh 30.21 in1023.0 mb - 0.00 in0.0 mm 0.00 in0.0 mm
03:20 AM 29.7°F-1.3°C 18.6°F-7.4°C 63% 5.8 mph NW9.3 kmh NW 11.5 mph18.5 kmh 30.21 in1023.0 mb - 0.00 in0.0 mm 0.00 in0.0 mm
03:30 AM 29.6°F-1.3°C 18.2°F-7.7°C 62% 9.2 mph NW14.8 kmh NW 17.3 mph27.8 kmh 30.22 in1023.4 mb - 0.00 in0.0 mm 0.00 in0.0 mm
03:40 AM 29.4°F-1.4°C 17.6°F-8.0°C 61% 8.1 mph NW13.0 kmh NW 11.5 mph18.5 kmh 30.22 in1023.4 mb - 0.00 in0.0 mm 0.00 in0.0 mm
03:50 AM 29.3°F-1.5°C 18.3°F-7.6°C 63% 8.1 mph NW13.0 kmh NW 11.5 mph18.5 kmh 30.22 in1023.4 mb - 0.00 in0.0 mm 0.00 in0.0 mm
04:00 AM 29.0°F-1.7°C 18.0°F-7.8°C 63% 5.8 mph NNW9.3 kmh NNW 10.4 mph16.7 kmh 30.22 in1023.4 mb - 0.00 in0.0 mm 0.00 in0.0 mm
04:10 AM 28.7°F-1.8°C 18.1°F-7.7°C 64% 8.1 mph NW13.0 kmh NW 11.5 mph18.5 kmh 30.23 in1023.7 mb - 0.00 in0.0 mm 0.00 in0.0 mm
04:20 AM 28.6°F-1.9°C 18.3°F-7.6°C 65% 8.1 mph NW13.0 kmh NW 10.4 mph16.7 kmh 30.23 in1023.7 mb - 0.00 in0.0 mm 0.00 in0.0 mm
04:30 AM 28.4°F-2.0°C 18.5°F-7.5°C 66% 8.1 mph NW13.0 kmh NW 13.8 mph22.2 kmh 30.24 in1024.0 mb - 0.00 in0.0 mm 0.00 in0.0 mm
04:40 AM 28.1°F-2.2°C 18.9°F-7.3°C 68% 5.8 mph NW9.3 kmh NW 11.5 mph18.5 kmh 30.24 in1024.0 mb - 0.00 in0.0 mm 0.00 in0.0 mm
04:50 AM 27.8°F-2.3°C 19.6°F-6.9°C 71% 5.8 mph NW9.3 kmh NW 9.2 mph14.8 kmh 30.24 in1024.0 mb - 0.00 in0.0 mm 0.00 in0.0 mm
05:00 AM 27.8°F-2.3°C 19.9°F-6.7°C 72% 3.5 mph NW5.6 kmh NW 8.1 mph13.0 kmh 30.24 in1024.0 mb - 0.00 in0.0 mm 0.00 in0.0 mm
05:10 AM 27.4°F-2.6°C 19.9°F-6.7°C 73% 5.8 mph NW9.3 kmh NW 11.5 mph18.5 kmh 30.24 in1024.0 mb - 0.00 in0.0 mm 0.00 in0.0 mm
05:20 AM 27.2°F-2.7°C 19.7°F-6.8°C 73% 6.9 mph NW11.1 kmh NW 8.1 mph13.0 kmh 30.24 in1024.0 mb - 0.00 in0.0 mm 0.00 in0.0 mm
05:30 AM 26.9°F-2.8°C 19.7°F-6.8°C 74% 5.8 mph NW9.3 kmh NW 11.5 mph18.5 kmh 30.25 in1024.4 mb - 0.00 in0.0 mm 0.00 in0.0 mm
05:40 AM 26.8°F-2.9°C 19.3°F-7.1°C 73% 6.9 mph NNW11.1 kmh NNW 9.2 mph14.8 kmh 30.25 in1024.4 mb - 0.00 in0.0 mm 0.00 in0.0 mm
05:50 AM 26.6°F-3.0°C 18.8°F-7.3°C 72% 8.1 mph NW13.0 kmh NW 11.5 mph18.5 kmh 30.25 in1024.4 mb - 0.00 in0.0 mm 0.00 in0.0 mm
06:00 AM 26.5°F-3.1°C 18.7°F-7.4°C 72% 6.9 mph NW11.1 kmh NW 9.2 mph14.8 kmh 30.25 in1024.4 mb - 0.00 in0.0 mm 0.00 in0.0 mm
06:10 AM 26.3°F-3.2°C 18.5°F-7.5°C 72% 5.8 mph NW9.3 kmh NW 9.2 mph14.8 kmh 30.26 in1024.7 mb - 0.00 in0.0 mm 0.00 in0.0 mm
06:20 AM 26.0°F-3.3°C 18.5°F-7.5°C 73% 8.1 mph NW13.0 kmh NW 11.5 mph18.5 kmh 30.26 in1024.7 mb - 0.00 in0.0 mm 0.00 in0.0 mm
06:30 AM 25.8°F-3.4°C 18.3°F-7.6°C 73% 6.9 mph NW11.1 kmh NW 11.5 mph18.5 kmh 30.26 in1024.7 mb - 0.00 in0.0 mm 0.00 in0.0 mm
06:40 AM 25.5°F-3.6°C 18.0°F-7.8°C 73% 5.8 mph NW9.3 kmh NW 9.2 mph14.8 kmh 30.26 in1024.7 mb - 0.00 in0.0 mm 0.00 in0.0 mm
06:50 AM 25.4°F-3.7°C 17.6°F-8.0°C 72% 5.8 mph NW9.3 kmh NW 9.2 mph14.8 kmh 30.27 in1025.1 mb - 0.00 in0.0 mm 0.00 in0.0 mm
07:00 AM 25.4°F-3.7°C 17.6°F-8.0°C 72% 8.1 mph NW13.0 kmh NW 11.5 mph18.5 kmh 30.27 in1025.1 mb - 0.00 in0.0 mm 0.00 in0.0 mm
07:10 AM 25.6°F-3.6°C 18.1°F-7.7°C 73% 6.9 mph NW11.1 kmh NW 11.5 mph18.5 kmh 30.28 in1025.4 mb - 0.00 in0.0 mm 0.00 in0.0 mm
07:20 AM 25.8°F-3.4°C 18.0°F-7.8°C 72% 3.5 mph NW5.6 kmh NW 10.4 mph16.7 kmh 30.28 in1025.4 mb - 0.00 in0.0 mm 0.00 in0.0 mm
07:30 AM 26.1°F-3.3°C 17.9°F-7.8°C 71% 6.9 mph NW11.1 kmh NW 9.2 mph14.8 kmh 30.28 in1025.4 mb - 0.00 in0.0 mm 0.00 in0.0 mm
07:40 AM 26.4°F-3.1°C 18.3°F-7.6°C 71% 5.8 mph NW9.3 kmh NW 8.1 mph13.0 kmh 30.28 in1025.4 mb - 0.00 in0.0 mm 0.00 in0.0 mm
07:50 AM 26.8°F-2.9°C 18.0°F-7.8°C 69% 4.6 mph NW7.4 kmh NW 11.5 mph18.5 kmh 30.28 in1025.4 mb - 0.00 in0.0 mm 0.00 in0.0 mm
08:00 AM 26.9°F-2.8°C 17.8°F-7.9°C 68% 6.9 mph NW11.1 kmh NW 8.1 mph13.0 kmh 30.28 in1025.4 mb - 0.00 in0.0 mm 0.00 in0.0 mm
08:10 AM 27.7°F-2.4°C 18.5°F-7.5°C 68% 4.6 mph NW7.4 kmh NW 8.1 mph13.0 kmh 30.28 in1025.4 mb - 0.00 in0.0 mm 0.00 in0.0 mm
08:20 AM 28.2°F-2.1°C 19.0°F-7.2°C 68% 4.6 mph NW7.4 kmh NW 10.4 mph16.7 kmh 30.28 in1025.4 mb - 0.00 in0.0 mm 0.00 in0.0 mm
08:30 AM 28.3°F-2.1°C 18.4°F-7.6°C 66% 6.9 mph NW11.1 kmh NW 11.5 mph18.5 kmh 30.28 in1025.4 mb - 0.00 in0.0 mm 0.00 in0.0 mm
08:40 AM 29.1°F-1.6°C 18.8°F-7.3°C 65% 5.8 mph N9.3 kmh N 8.1 mph13.0 kmh 30.28 in1025.4 mb - 0.00 in0.0 mm 0.00 in0.0 mm
08:50 AM 29.4°F-1.4°C 18.7°F-7.4°C 64% 6.9 mph NNW11.1 kmh NNW 11.5 mph18.5 kmh 30.28 in1025.4 mb - 0.00 in0.0 mm 0.00 in0.0 mm
09:00 AM 29.5°F-1.4°C 18.5°F-7.5°C 63% 5.8 mph NNW9.3 kmh NNW 6.9 mph11.1 kmh 30.28 in1025.4 mb - 0.00 in0.0 mm 0.00 in0.0 mm
09:10 AM 29.5°F-1.4°C 18.1°F-7.7°C 62% 6.9 mph NW11.1 kmh NW 11.5 mph18.5 kmh 30.28 in1025.4 mb - 0.00 in0.0 mm 0.00 in0.0 mm
09:20 AM 30.1°F-1.1°C 19.4°F-7.0°C 64% 6.9 mph NW11.1 kmh NW 8.1 mph13.0 kmh 30.28 in1025.4 mb - 0.00 in0.0 mm 0.00 in0.0 mm
09:30 AM 30.6°F-0.8°C 19.5°F-6.9°C 63% 2.3 mph N3.7 kmh N 4.6 mph7.4 kmh 30.27 in1025.1 mb - 0.00 in0.0 mm 0.00 in0.0 mm
09:40 AM 30.8°F-0.7°C 19.7°F-6.8°C 63% 4.6 mph NW7.4 kmh NW 5.8 mph9.3 kmh 30.27 in1025.1 mb - 0.00 in0.0 mm 0.00 in0.0 mm
09:50 AM 30.7°F-0.7°C 18.8°F-7.3°C 61% 4.6 mph NW7.4 kmh NW 8.1 mph13.0 kmh 30.28 in1025.4 mb - 0.00 in0.0 mm 0.00 in0.0 mm
10:00 AM 31.4°F-0.3°C 19.8°F-6.8°C 62% 3.5 mph WNW5.6 kmh WNW 8.1 mph13.0 kmh 30.27 in1025.1 mb - 0.00 in0.0 mm 0.00 in0.0 mm
10:10 AM 31.7°F-0.2°C 20.2°F-6.6°C 62% 5.8 mph NW9.3 kmh NW 9.2 mph14.8 kmh 30.28 in1025.4 mb - 0.00 in0.0 mm 0.00 in0.0 mm
10:20 AM 31.8°F-0.1°C 20.6°F-6.3°C 63% 2.3 mph NNW3.7 kmh NNW 6.9 mph11.1 kmh 30.28 in1025.4 mb - 0.00 in0.0 mm 0.00 in0.0 mm
10:30 AM 31.7°F-0.2°C 20.1°F-6.6°C 62% 4.6 mph NW7.4 kmh NW 4.6 mph7.4 kmh 30.29 in1025.7 mb - 0.00 in0.0 mm 0.00 in0.0 mm
10:40 AM 32.2°F0.1°C 20.2°F-6.6°C 61% 3.5 mph WNW5.6 kmh WNW 6.9 mph11.1 kmh 30.30 in1026.1 mb - 0.00 in0.0 mm 0.00 in0.0 mm
10:50 AM 32.0°F0.0°C 20.9°F-6.2°C 63% 4.6 mph NW7.4 kmh NW 6.9 mph11.1 kmh 30.30 in1026.1 mb - 0.00 in0.0 mm 0.00 in0.0 mm
11:00 AM 32.3°F0.2°C 20.0°F-6.7°C 60% 3.5 mph NW5.6 kmh NW 4.6 mph7.4 kmh 30.29 in1025.7 mb - 0.00 in0.0 mm 0.00 in0.0 mm
11:10 AM 31.5°F-0.3°C 18.8°F-7.3°C 59% 3.5 mph NW5.6 kmh NW 9.2 mph14.8 kmh 30.30 in1026.1 mb - 0.00 in0.0 mm 0.00 in0.0 mm
11:20 AM 32.2°F0.1°C 19.8°F-6.8°C 60% 2.3 mph W3.7 kmh W 3.5 mph5.6 kmh 30.30 in1026.1 mb - 0.00 in0.0 mm 0.00 in0.0 mm
11:30 AM 32.0°F0.0°C 19.3°F-7.1°C 59% 5.8 mph WSW9.3 kmh WSW 5.8 mph9.3 kmh 30.30 in1026.1 mb - 0.00 in0.0 mm 0.00 in0.0 mm
11:40 AM 32.2°F0.1°C 19.4°F-7.0°C 59% 3.5 mph W5.6 kmh W 5.8 mph9.3 kmh 30.30 in1026.1 mb - 0.00 in0.0 mm 0.00 in0.0 mm
11:50 AM 32.0°F0.0°C 19.3°F-7.1°C 59% 3.5 mph NW5.6 kmh NW 5.8 mph9.3 kmh 30.30 in1026.1 mb - 0.00 in0.0 mm 0.00 in0.0 mm
12:00 PM 32.2°F0.1°C 19.5°F-6.9°C 59% 6.9 mph W11.1 kmh W 10.4 mph16.7 kmh 30.30 in1026.1 mb - 0.00 in0.0 mm 0.00 in0.0 mm
12:10 PM 32.9°F0.5°C 20.5°F-6.4°C 60% 5.8 mph WNW9.3 kmh WNW 9.2 mph14.8 kmh 30.30 in1026.1 mb - 0.00 in0.0 mm 0.00 in0.0 mm
12:20 PM 32.6°F0.3°C 19.5°F-6.9°C 58% 6.9 mph WNW11.1 kmh WNW 10.4 mph16.7 kmh 30.30 in1026.1 mb - 0.00 in0.0 mm 0.00 in0.0 mm
12:30 PM 32.4°F0.2°C 19.2°F-7.1°C 58% 4.6 mph WNW7.4 kmh WNW 5.8 mph9.3 kmh 30.30 in1026.1 mb - 0.00 in0.0 mm 0.00 in0.0 mm
12:40 PM 32.2°F0.1°C 18.7°F-7.4°C 57% 4.6 mph NW7.4 kmh NW 4.6 mph7.4 kmh 30.29 in1025.7 mb - 0.00 in0.0 mm 0.00 in0.0 mm
12:50 PM 31.9°F-0.1°C 18.4°F-7.6°C 57% 2.3 mph NW3.7 kmh NW 3.5 mph5.6 kmh 30.29 in1025.7 mb - 0.00 in0.0 mm 0.00 in0.0 mm
01:00 PM 32.8°F0.4°C 18.8°F-7.3°C 56% 4.6 mph NW7.4 kmh NW 6.9 mph11.1 kmh 30.29 in1025.7 mb - 0.00 in0.0 mm 0.00 in0.0 mm
01:10 PM 32.8°F0.4°C 19.2°F-7.1°C 57% 6.9 mph W11.1 kmh W 10.4 mph16.7 kmh 30.29 in1025.7 mb - 0.00 in0.0 mm 0.00 in0.0 mm
01:20 PM 32.9°F0.5°C 20.1°F-6.6°C 59% 4.6 mph WNW7.4 kmh WNW 5.8 mph9.3 kmh 30.29 in1025.7 mb - 0.00 in0.0 mm 0.00 in0.0 mm
01:30 PM 32.4°F0.2°C 18.4°F-7.6°C 56% 4.6 mph NW7.4 kmh NW 8.1 mph13.0 kmh 30.28 in1025.4 mb - 0.00 in0.0 mm 0.00 in0.0 mm
01:40 PM 32.4°F0.2°C 18.4°F-7.6°C 56% 5.8 mph W9.3 kmh W 8.1 mph13.0 kmh 30.28 in1025.4 mb - 0.00 in0.0 mm 0.00 in0.0 mm
01:50 PM 32.6°F0.3°C 17.8°F-7.9°C 54% 4.6 mph W7.4 kmh W 5.8 mph9.3 kmh 30.28 in1025.4 mb - 0.00 in0.0 mm 0.00 in0.0 mm
02:00 PM 32.6°F0.3°C 16.9°F-8.4°C 52% 4.6 mph WNW7.4 kmh WNW 10.4 mph16.7 kmh 30.27 in1025.1 mb - 0.00 in0.0 mm 0.00 in0.0 mm
02:10 PM 32.8°F0.4°C 18.0°F-7.8°C 54% 4.6 mph NW7.4 kmh NW 9.2 mph14.8 kmh 30.27 in1025.1 mb - 0.00 in0.0 mm 0.00 in0.0 mm
02:20 PM 32.5°F0.3°C 16.4°F-8.7°C 51% 5.8 mph WNW9.3 kmh WNW 8.1 mph13.0 kmh 30.26 in1024.7 mb - 0.00 in0.0 mm 0.00 in0.0 mm
02:30 PM 32.8°F0.4°C 17.1°F-8.3°C 52% 5.8 mph WSW9.3 kmh WSW 8.1 mph13.0 kmh 30.25 in1024.4 mb - 0.00 in0.0 mm 0.00 in0.0 mm
02:40 PM 33.1°F0.6°C 17.3°F-8.2°C 52% 4.6 mph WNW7.4 kmh WNW 5.8 mph9.3 kmh 30.25 in1024.4 mb - 0.00 in0.0 mm 0.00 in0.0 mm
02:50 PM 33.4°F0.8°C 17.2°F-8.2°C 51% 3.5 mph WNW5.6 kmh WNW 6.9 mph11.1 kmh 30.24 in1024.0 mb - 0.00 in0.0 mm 0.00 in0.0 mm
03:00 PM 33.5°F0.8°C 15.8°F-9.0°C 48% 4.6 mph WNW7.4 kmh WNW 5.8 mph9.3 kmh 30.24 in1024.0 mb - 0.00 in0.0 mm 0.00 in0.0 mm
03:10 PM 33.1°F0.6°C 16.9°F-8.4°C 51% 3.5 mph NW5.6 kmh NW 5.8 mph9.3 kmh 30.23 in1023.7 mb - 0.00 in0.0 mm 0.00 in0.0 mm
03:20 PM 33.3°F0.7°C 16.6°F-8.6°C 50% 2.3 mph NW3.7 kmh NW 4.6 mph7.4 kmh 30.22 in1023.4 mb - 0.00 in0.0 mm 0.00 in0.0 mm
03:30 PM 32.8°F0.4°C 15.7°F-9.1°C 49% 4.6 mph NW7.4 kmh NW 8.1 mph13.0 kmh 30.21 in1023.0 mb - 0.00 in0.0 mm 0.00 in0.0 mm
03:40 PM 32.8°F0.4°C 16.2°F-8.8°C 50% 3.5 mph WNW5.6 kmh WNW 3.5 mph5.6 kmh 30.21 in1023.0 mb - 0.00 in0.0 mm 0.00 in0.0 mm
03:50 PM 33.2°F0.7°C 16.1°F-8.8°C 49% 5.8 mph NW9.3 kmh NW 5.8 mph9.3 kmh 30.20 in1022.7 mb - 0.00 in0.0 mm 0.00 in0.0 mm
04:00 PM 33.0°F0.6°C 14.9°F-9.5°C 47% 3.5 mph NW5.6 kmh NW 4.6 mph7.4 kmh 30.19 in1022.4 mb - 0.00 in0.0 mm 0.00 in0.0 mm
04:10 PM 33.1°F0.6°C 16.0°F-8.9°C 49% 4.6 mph NW7.4 kmh NW 6.9 mph11.1 kmh 30.19 in1022.4 mb - 0.00 in0.0 mm 0.00 in0.0 mm
04:20 PM 33.2°F0.7°C 17.0°F-8.3°C 51% 2.3 mph WSW3.7 kmh WSW 3.5 mph5.6 kmh 30.19 in1022.4 mb - 0.00 in0.0 mm 0.00 in0.0 mm
04:30 PM 33.1°F0.6°C 16.0°F-8.9°C 49% 3.5 mph W5.6 kmh W 4.6 mph7.4 kmh 30.19 in1022.4 mb - 0.00 in0.0 mm 0.00 in0.0 mm
04:40 PM 32.8°F0.4°C 14.8°F-9.6°C 47% 2.3 mph W3.7 kmh W 3.5 mph5.6 kmh 30.18 in1022.0 mb - 0.00 in0.0 mm 0.00 in0.0 mm
04:50 PM 33.0°F0.6°C 16.4°F-8.7°C 50% 3.5 mph WSW5.6 kmh WSW 3.5 mph5.6 kmh 30.18 in1022.0 mb - 0.00 in0.0 mm 0.00 in0.0 mm
05:00 PM 32.8°F0.4°C 16.2°F-8.8°C 50% 4.6 mph WNW7.4 kmh WNW 6.9 mph11.1 kmh 30.19 in1022.4 mb - 0.00 in0.0 mm 0.00 in0.0 mm
05:10 PM 32.6°F0.3°C 16.0°F-8.9°C 50% 2.3 mph W3.7 kmh W 3.5 mph5.6 kmh 30.19 in1022.4 mb - 0.00 in0.0 mm 0.00 in0.0 mm
05:20 PM 32.5°F0.3°C 15.9°F-8.9°C 50% 2.3 mph W3.7 kmh W 3.5 mph5.6 kmh 30.18 in1022.0 mb - 0.00 in0.0 mm 0.00 in0.0 mm
05:30 PM 32.5°F0.3°C 15.9°F-8.9°C 50% 3.5 mph WSW5.6 kmh WSW 4.6 mph7.4 kmh 30.18 in1022.0 mb - 0.00 in0.0 mm 0.00 in0.0 mm
05:40 PM 32.4°F0.2°C 16.2°F-8.8°C 51% 3.5 mph WSW5.6 kmh WSW 4.6 mph7.4 kmh 30.18 in1022.0 mb - 0.00 in0.0 mm 0.00 in0.0 mm
05:50 PM 32.4°F0.2°C 15.8°F-9.0°C 50% 3.5 mph W5.6 kmh W 5.8 mph9.3 kmh 30.18 in1022.0 mb - 0.00 in0.0 mm 0.00 in0.0 mm
06:00 PM 32.3°F0.2°C 15.2°F-9.3°C 49% 3.5 mph WNW5.6 kmh WNW 4.6 mph7.4 kmh 30.18 in1022.0 mb - 0.00 in0.0 mm 0.00 in0.0 mm
06:10 PM 32.2°F0.1°C 15.6°F-9.1°C 50% 3.5 mph WNW5.6 kmh WNW 4.6 mph7.4 kmh 30.18 in1022.0 mb - 0.00 in0.0 mm 0.00 in0.0 mm
06:20 PM 32.0°F0.0°C 14.5°F-9.7°C 48% 2.3 mph WSW3.7 kmh WSW 4.6 mph7.4 kmh 30.18 in1022.0 mb - 0.00 in0.0 mm 0.00 in0.0 mm
06:30 PM 31.9°F-0.1°C 14.4°F-9.8°C 48% 3.5 mph W5.6 kmh W 4.6 mph7.4 kmh 30.18 in1022.0 mb - 0.00 in0.0 mm 0.00 in0.0 mm
06:40 PM 31.8°F-0.1°C 15.3°F-9.3°C 50% 4.6 mph WNW7.4 kmh WNW 6.9 mph11.1 kmh 30.18 in1022.0 mb - 0.00 in0.0 mm 0.00 in0.0 mm
06:50 PM 31.7°F-0.2°C 15.6°F-9.1°C 51% 3.5 mph WSW5.6 kmh WSW 3.5 mph5.6 kmh 30.18 in1022.0 mb - 0.00 in0.0 mm 0.00 in0.0 mm
07:00 PM 31.7°F-0.2°C 16.0°F-8.9°C 52% 3.5 mph W5.6 kmh W 4.6 mph7.4 kmh 30.18 in1022.0 mb - 0.00 in0.0 mm 0.00 in0.0 mm
07:10 PM 31.4°F-0.3°C 15.8°F-9.0°C 52% 3.5 mph WSW5.6 kmh WSW 4.6 mph7.4 kmh 30.18 in1022.0 mb - 0.00 in0.0 mm 0.00 in0.0 mm
07:20 PM 31.3°F-0.4°C 15.7°F-9.1°C 52% 2.3 mph W3.7 kmh W 6.9 mph11.1 kmh 30.18 in1022.0 mb - 0.00 in0.0 mm 0.00 in0.0 mm
07:30 PM 31.0°F-0.6°C 15.9°F-8.9°C 53% 3.5 mph WSW5.6 kmh WSW 4.6 mph7.4 kmh 30.18 in1022.0 mb - 0.00 in0.0 mm 0.00 in0.0 mm
07:40 PM 30.9°F-0.6°C 16.6°F-8.6°C 55% 2.3 mph WSW3.7 kmh WSW 3.5 mph5.6 kmh 30.18 in1022.0 mb - 0.00 in0.0 mm 0.00 in0.0 mm
07:50 PM 30.9°F-0.6°C 16.6°F-8.6°C 55% 2.3 mph WSW3.7 kmh WSW 3.5 mph5.6 kmh 30.18 in1022.0 mb - 0.00 in0.0 mm 0.00 in0.0 mm
08:00 PM 30.8°F-0.7°C 16.5°F-8.6°C 55% 3.5 mph W5.6 kmh W 4.6 mph7.4 kmh 30.18 in1022.0 mb - 0.00 in0.0 mm 0.00 in0.0 mm
08:10 PM 30.8°F-0.7°C 16.5°F-8.6°C 55% 3.5 mph WNW5.6 kmh WNW 5.8 mph9.3 kmh 30.19 in1022.4 mb - 0.00 in0.0 mm 0.00 in0.0 mm
08:20 PM 30.4°F-0.9°C 16.1°F-8.8°C 55% 3.5 mph WSW5.6 kmh WSW 3.5 mph5.6 kmh 30.18 in1022.0 mb - 0.00 in0.0 mm 0.00 in0.0 mm
08:30 PM 29.7°F-1.3°C 16.3°F-8.7°C 57% 3.5 mph WNW5.6 kmh WNW 4.6 mph7.4 kmh 30.18 in1022.0 mb - 0.00 in0.0 mm 0.00 in0.0 mm
08:40 PM 29.4°F-1.4°C 16.4°F-8.7°C 58% 2.3 mph W3.7 kmh W 3.5 mph5.6 kmh 30.18 in1022.0 mb - 0.00 in0.0 mm 0.00 in0.0 mm
08:50 PM 29.1°F-1.6°C 16.1°F-8.8°C 58% 4.6 mph W7.4 kmh W 6.9 mph11.1 kmh 30.18 in1022.0 mb - 0.00 in0.0 mm 0.00 in0.0 mm
09:00 PM 28.8°F-1.8°C 15.9°F-8.9°C 58% 4.6 mph WSW7.4 kmh WSW 8.1 mph13.0 kmh 30.19 in1022.4 mb - 0.00 in0.0 mm 0.00 in0.0 mm
09:10 PM 28.7°F-1.8°C 16.2°F-8.8°C 59% 3.5 mph W5.6 kmh W 3.5 mph5.6 kmh 30.19 in1022.4 mb - 0.00 in0.0 mm 0.00 in0.0 mm
09:20 PM 28.5°F-1.9°C 16.3°F-8.7°C 60% 3.5 mph WSW5.6 kmh WSW 4.6 mph7.4 kmh 30.19 in1022.4 mb - 0.00 in0.0 mm 0.00 in0.0 mm
09:30 PM 28.3°F-2.1°C 16.2°F-8.8°C 60% 4.6 mph W7.4 kmh W 4.6 mph7.4 kmh 30.19 in1022.4 mb - 0.00 in0.0 mm 0.00 in0.0 mm
09:40 PM 27.8°F-2.3°C 16.1°F-8.8°C 61% 2.3 mph WNW3.7 kmh WNW 3.5 mph5.6 kmh 30.19 in1022.4 mb - 0.00 in0.0 mm 0.00 in0.0 mm
09:50 PM 27.6°F-2.4°C 16.3°F-8.7°C 62% 3.5 mph W5.6 kmh W 5.8 mph9.3 kmh 30.19 in1022.4 mb - 0.00 in0.0 mm 0.00 in0.0 mm
10:00 PM 27.6°F-2.4°C 16.3°F-8.7°C 62% 3.5 mph W5.6 kmh W 5.8 mph9.3 kmh 30.20 in1022.7 mb - 0.00 in0.0 mm 0.00 in0.0 mm
10:10 PM 27.4°F-2.6°C 16.1°F-8.8°C 62% 3.5 mph W5.6 kmh W 4.6 mph7.4 kmh 30.19 in1022.4 mb - 0.00 in0.0 mm 0.00 in0.0 mm
10:20 PM 27.1°F-2.7°C 16.5°F-8.6°C 64% 2.3 mph WSW3.7 kmh WSW 2.3 mph3.7 kmh 30.19 in1022.4 mb - 0.00 in0.0 mm 0.00 in0.0 mm
10:30 PM 26.7°F-2.9°C 16.5°F-8.6°C 65% 2.3 mph WSW3.7 kmh WSW 2.3 mph3.7 kmh 30.19 in1022.4 mb - 0.00 in0.0 mm 0.00 in0.0 mm
10:40 PM 26.3°F-3.2°C 16.5°F-8.6°C 66% 1.2 mph W1.9 kmh W 2.3 mph3.7 kmh 30.19 in1022.4 mb - 0.00 in0.0 mm 0.00 in0.0 mm
10:50 PM 25.8°F-3.4°C 16.7°F-8.5°C 68% 1.2 mph WSW1.9 kmh WSW 2.3 mph3.7 kmh 30.19 in1022.4 mb - 0.00 in0.0 mm 0.00 in0.0 mm
11:00 PM 25.4°F-3.7°C 16.4°F-8.7°C 68% 1.2 mph WSW1.9 kmh WSW 3.5 mph5.6 kmh 30.18 in1022.0 mb - 0.00 in0.0 mm 0.00 in0.0 mm
11:10 PM 25.8°F-3.4°C 16.0°F-8.9°C 66% 2.3 mph W3.7 kmh W 3.5 mph5.6 kmh 30.18 in1022.0 mb - 0.00 in0.0 mm 0.00 in0.0 mm
11:20 PM 25.5°F-3.6°C 16.1°F-8.8°C 67% 1.2 mph WSW1.9 kmh WSW 3.5 mph5.6 kmh 30.18 in1022.0 mb - 0.00 in0.0 mm 0.00 in0.0 mm
11:30 PM 25.4°F-3.7°C 16.3°F-8.7°C 68% 2.3 mph WSW3.7 kmh WSW 3.5 mph5.6 kmh 30.18 in1022.0 mb - 0.00 in0.0 mm 0.00 in0.0 mm
11:40 PM 24.9°F-3.9°C 16.2°F-8.8°C 69% 2.3 mph WSW3.7 kmh WSW 3.5 mph5.6 kmh 30.17 in1021.7 mb - 0.00 in0.0 mm 0.00 in0.0 mm
11:50 PM 24.5°F-4.2°C 15.5°F-9.2°C 68% 1.2 mph SW1.9 kmh SW 2.3 mph3.7 kmh 30.18 in1022.0 mb - 0.00 in0.0 mm 0.00 in0.0 mm